Terminal Aerodrome Forecast
Issued by NWS Cleveland, OH

Home | Current Version | Previous Version | Text Only | Print | Product List | Glossary Off
Versions: 1 2 3 4 5 6 7 8 9 10 11 12 13 14 15 16 17 18 19 20 21 22 23

000
FTUS41 KCLE 152300
TAFTOL
TAF
KTOL 152334Z 1600/1624 08012G22KT P6SM BKN200
     FM160130 08008KT P6SM BKN200
     FM161100 13010KT 6SM -SHRA BKN040 OVC100
     FM161600 17012G20KT P6SM OVC028
      TEMPO 1616/1620 6SM -SHRA=

USA.gov is the U.S. government's official web portal to all federal, state and local government web resources and services.